sensor_id;sensor_type;location;lat;lon;timestamp;temperature;humidity
55828;DHT22;41758;51.992;5.890;2023-01-29T00:00:16;7.40;60.60
55828;DHT22;41758;51.992;5.890;2023-01-29T00:02:42;7.30;60.00
55828;DHT22;41758;51.992;5.890;2023-01-29T00:05:08;7.30;60.50
55828;DHT22;41758;51.992;5.890;2023-01-29T00:07:36;7.30;60.00
55828;DHT22;41758;51.992;5.890;2023-01-29T00:10:02;7.40;60.60
55828;DHT22;41758;51.992;5.890;2023-01-29T00:12:27;7.30;60.70
55828;DHT22;41758;51.992;5.890;2023-01-29T00:14:53;7.30;61.00
55828;DHT22;41758;51.992;5.890;2023-01-29T00:17:19;7.30;61.00
55828;DHT22;41758;51.992;5.890;2023-01-29T00:19:45;7.30;60.20
55828;DHT22;41758;51.992;5.890;2023-01-29T00:22:11;7.40;61.00
55828;DHT22;41758;51.992;5.890;2023-01-29T00:24:37;7.30;60.40
55828;DHT22;41758;51.992;5.890;2023-01-29T00:27:03;7.40;59.60
55828;DHT22;41758;51.992;5.890;2023-01-29T00:29:28;7.30;60.30
55828;DHT22;41758;51.992;5.890;2023-01-29T00:31:54;7.30;60.70
55828;DHT22;41758;51.992;5.890;2023-01-29T00:34:20;7.30;60.90
55828;DHT22;41758;51.992;5.890;2023-01-29T00:36:50;7.30;60.30
55828;DHT22;41758;51.992;5.890;2023-01-29T00:39:16;7.30;59.90
55828;DHT22;41758;51.992;5.890;2023-01-29T00:41:48;7.30;60.50
55828;DHT22;41758;51.992;5.890;2023-01-29T00:44:36;7.30;60.40
55828;DHT22;41758;51.992;5.890;2023-01-29T00:47:21;7.30;60.50
55828;DHT22;41758;51.992;5.890;2023-01-29T00:49:59;7.30;60.20
55828;DHT22;41758;51.992;5.890;2023-01-29T00:52:26;7.30;60.00
55828;DHT22;41758;51.992;5.890;2023-01-29T00:54:53;7.30;59.90
55828;DHT22;41758;51.992;5.890;2023-01-29T00:57:19;7.30;60.90
55828;DHT22;41758;51.992;5.890;2023-01-29T00:59:48;7.30;60.60
55828;DHT22;41758;51.992;5.890;2023-01-29T01:02:14;7.30;59.90
55828;DHT22;41758;51.992;5.890;2023-01-29T01:04:58;7.30;59.70
55828;DHT22;41758;51.992;5.890;2023-01-29T01:07:24;7.30;60.20
55828;DHT22;41758;51.992;5.890;2023-01-29T01:09:49;7.30;58.70
55828;DHT22;41758;51.992;5.890;2023-01-29T01:12:34;7.30;59.30
55828;DHT22;41758;51.992;5.890;2023-01-29T01:14:59;7.20;59.30
55828;DHT22;41758;51.992;5.890;2023-01-29T01:17:25;7.20;60.70
55828;DHT22;41758;51.992;5.890;2023-01-29T01:19:51;7.20;60.40
55828;DHT22;41758;51.992;5.890;2023-01-29T01:22:17;7.30;60.20
55828;DHT22;41758;51.992;5.890;2023-01-29T01:24:43;7.20;59.40
55828;DHT22;41758;51.992;5.890;2023-01-29T01:27:09;7.20;60.30
55828;DHT22;41758;51.992;5.890;2023-01-29T01:29:34;7.20;60.20
55828;DHT22;41758;51.992;5.890;2023-01-29T01:32:01;7.20;59.80
55828;DHT22;41758;51.992;5.890;2023-01-29T01:34:27;7.20;60.70
55828;DHT22;41758;51.992;5.890;2023-01-29T01:36:53;7.20;60.70
55828;DHT22;41758;51.992;5.890;2023-01-29T01:39:23;7.20;60.80
55828;DHT22;41758;51.992;5.890;2023-01-29T01:41:50;7.20;61.10
55828;DHT22;41758;51.992;5.890;2023-01-29T01:44:53;7.20;60.60
55828;DHT22;41758;51.992;5.890;2023-01-29T01:47:25;7.20;60.80
55828;DHT22;41758;51.992;5.890;2023-01-29T01:49:53;7.20;60.70
55828;DHT22;41758;51.992;5.890;2023-01-29T01:52:19;7.20;61.20
55828;DHT22;41758;51.992;5.890;2023-01-29T01:54:46;7.20;61.10
55828;DHT22;41758;51.992;5.890;2023-01-29T01:57:16;7.20;60.70
55828;DHT22;41758;51.992;5.890;2023-01-29T01:59:54;7.20;60.00
55828;DHT22;41758;51.992;5.890;2023-01-29T02:02:21;7.10;60.60
55828;DHT22;41758;51.992;5.890;2023-01-29T02:05:05;7.20;60.70
55828;DHT22;41758;51.992;5.890;2023-01-29T02:07:50;7.10;61.40
55828;DHT22;41758;51.992;5.890;2023-01-29T02:10:45;7.10;61.10
55828;DHT22;41758;51.992;5.890;2023-01-29T02:13:11;7.10;61.00
55828;DHT22;41758;51.992;5.890;2023-01-29T02:15:40;7.10;61.20
55828;DHT22;41758;51.992;5.890;2023-01-29T02:18:10;7.20;61.40
55828;DHT22;41758;51.992;5.890;2023-01-29T02:20:37;7.20;61.30
55828;DHT22;41758;51.992;5.890;2023-01-29T02:28:42;7.10;60.90
55828;DHT22;41758;51.992;5.890;2023-01-29T02:31:38;7.10;60.90
55828;DHT22;41758;51.992;5.890;2023-01-29T02:38:10;7.10;60.90
55828;DHT22;41758;51.992;5.890;2023-01-29T02:43:32;7.00;61.30
55828;DHT22;41758;51.992;5.890;2023-01-29T02:46:17;7.10;61.30
55828;DHT22;41758;51.992;5.890;2023-01-29T02:51:42;7.00;61.10
55828;DHT22;41758;51.992;5.890;2023-01-29T02:54:45;7.00;60.30
55828;DHT22;41758;51.992;5.890;2023-01-29T02:57:19;7.00;61.20
55828;DHT22;41758;51.992;5.890;2023-01-29T03:00:04;7.00;61.10
55828;DHT22;41758;51.992;5.890;2023-01-29T03:02:43;7.00;60.70
55828;DHT22;41758;51.992;5.890;2023-01-29T03:05:14;7.00;61.30
55828;DHT22;41758;51.992;5.890;2023-01-29T03:07:47;7.00;59.80
55828;DHT22;41758;51.992;5.890;2023-01-29T03:13:13;7.00;60.50
55828;DHT22;41758;51.992;5.890;2023-01-29T03:15:43;7.00;60.70
55828;DHT22;41758;51.992;5.890;2023-01-29T03:18:36;7.00;59.70
55828;DHT22;41758;51.992;5.890;2023-01-29T03:21:19;6.90;60.20
55828;DHT22;41758;51.992;5.890;2023-01-29T03:24:05;7.00;59.70
55828;DHT22;41758;51.992;5.890;2023-01-29T03:26:51;6.90;59.40
55828;DHT22;41758;51.992;5.890;2023-01-29T03:29:41;6.80;59.10
55828;DHT22;41758;51.992;5.890;2023-01-29T03:32:45;6.80;61.00
55828;DHT22;41758;51.992;5.890;2023-01-29T03:35:16;6.80;61.30
55828;DHT22;41758;51.992;5.890;2023-01-29T03:37:47;6.80;61.20
55828;DHT22;41758;51.992;5.890;2023-01-29T03:40:14;6.90;60.50
55828;DHT22;41758;51.992;5.890;2023-01-29T03:45:20;6.80;61.20
55828;DHT22;41758;51.992;5.890;2023-01-29T03:51:10;6.90;61.10
55828;DHT22;41758;51.992;5.890;2023-01-29T03:53:51;6.90;59.70
55828;DHT22;41758;51.992;5.890;2023-01-29T04:02:09;6.90;61.60
55828;DHT22;41758;51.992;5.890;2023-01-29T04:04:38;6.90;61.60
55828;DHT22;41758;51.992;5.890;2023-01-29T04:07:19;7.00;61.50
55828;DHT22;41758;51.992;5.890;2023-01-29T04:10:14;7.00;61.30
55828;DHT22;41758;51.992;5.890;2023-01-29T04:12:54;7.00;61.20
55828;DHT22;41758;51.992;5.890;2023-01-29T04:15:21;7.00;60.60
55828;DHT22;41758;51.992;5.890;2023-01-29T04:17:51;7.00;61.10
55828;DHT22;41758;51.992;5.890;2023-01-29T04:20:24;7.00;61.20
55828;DHT22;41758;51.992;5.890;2023-01-29T04:22:51;7.00;60.30
55828;DHT22;41758;51.992;5.890;2023-01-29T04:25:25;7.00;60.50
55828;DHT22;41758;51.992;5.890;2023-01-29T04:28:05;7.00;60.50
55828;DHT22;41758;51.992;5.890;2023-01-29T04:30:43;7.00;60.60
55828;DHT22;41758;51.992;5.890;2023-01-29T04:33:17;7.00;59.90
55828;DHT22;41758;51.992;5.890;2023-01-29T04:40:09;6.90;60.40
55828;DHT22;41758;51.992;5.890;2023-01-29T04:42:12;6.90;60.50
55828;DHT22;41758;51.992;5.890;2023-01-29T04:45:30;6.80;60.90
55828;DHT22;41758;51.992;5.890;2023-01-29T04:50:23;6.90;61.60
55828;DHT22;41758;51.992;5.890;2023-01-29T04:53:16;6.90;61.80
55828;DHT22;41758;51.992;5.890;2023-01-29T04:58:35;6.90;60.50
55828;DHT22;41758;51.992;5.890;2023-01-29T05:01:05;6.90;61.60
55828;DHT22;41758;51.992;5.890;2023-01-29T05:03:32;6.90;61.80
55828;DHT22;41758;51.992;5.890;2023-01-29T05:06:00;7.00;61.70
55828;DHT22;41758;51.992;5.890;2023-01-29T05:08:27;7.00;61.00
55828;DHT22;41758;51.992;5.890;2023-01-29T05:10:54;7.00;61.30
55828;DHT22;41758;51.992;5.890;2023-01-29T05:13:22;7.00;61.40
55828;DHT22;41758;51.992;5.890;2023-01-29T05:18:20;7.00;60.20
55828;DHT22;41758;51.992;5.890;2023-01-29T05:20:47;7.00;60.90
55828;DHT22;41758;51.992;5.890;2023-01-29T05:23:21;7.00;61.20
55828;DHT22;41758;51.992;5.890;2023-01-29T05:25:48;6.90;61.20
55828;DHT22;41758;51.992;5.890;2023-01-29T05:28:14;7.00;61.20
55828;DHT22;41758;51.992;5.890;2023-01-29T05:30:48;7.00;61.30
55828;DHT22;41758;51.992;5.890;2023-01-29T05:33:20;7.00;61.20
55828;DHT22;41758;51.992;5.890;2023-01-29T05:35:47;7.00;61.40
55828;DHT22;41758;51.992;5.890;2023-01-29T05:38:13;7.00;61.30
55828;DHT22;41758;51.992;5.890;2023-01-29T05:40:40;7.10;61.10
55828;DHT22;41758;51.992;5.890;2023-01-29T05:43:19;7.10;61.30
55828;DHT22;41758;51.992;5.890;2023-01-29T05:45:56;7.10;61.00
55828;DHT22;41758;51.992;5.890;2023-01-29T05:48:22;7.10;61.10
55828;DHT22;41758;51.992;5.890;2023-01-29T05:50:51;7.00;60.60
55828;DHT22;41758;51.992;5.890;2023-01-29T05:53:17;7.00;60.90
55828;DHT22;41758;51.992;5.890;2023-01-29T05:55:44;7.00;60.70
55828;DHT22;41758;51.992;5.890;2023-01-29T05:58:10;7.00;60.30
55828;DHT22;41758;51.992;5.890;2023-01-29T06:00:36;7.00;61.30
55828;DHT22;41758;51.992;5.890;2023-01-29T06:03:03;7.00;61.20
55828;DHT22;41758;51.992;5.890;2023-01-29T06:05:29;7.00;61.00
55828;DHT22;41758;51.992;5.890;2023-01-29T06:07:55;7.00;61.10
55828;DHT22;41758;51.992;5.890;2023-01-29T06:10:21;7.00;61.20
55828;DHT22;41758;51.992;5.890;2023-01-29T06:12:59;7.00;61.30
55828;DHT22;41758;51.992;5.890;2023-01-29T06:15:25;7.10;61.20
55828;DHT22;41758;51.992;5.890;2023-01-29T06:17:55;7.10;60.70
55828;DHT22;41758;51.992;5.890;2023-01-29T06:20:21;7.10;61.20
55828;DHT22;41758;51.992;5.890;2023-01-29T06:22:53;7.10;61.30
55828;DHT22;41758;51.992;5.890;2023-01-29T06:25:19;7.10;61.00
55828;DHT22;41758;51.992;5.890;2023-01-29T06:27:57;7.10;61.10
55828;DHT22;41758;51.992;5.890;2023-01-29T06:30:23;7.10;61.00
55828;DHT22;41758;51.992;5.890;2023-01-29T06:32:49;7.10;60.60
55828;DHT22;41758;51.992;5.890;2023-01-29T06:35:18;7.10;61.10
55828;DHT22;41758;51.992;5.890;2023-01-29T06:37:44;7.10;61.00
55828;DHT22;41758;51.992;5.890;2023-01-29T06:40:10;7.10;61.10
55828;DHT22;41758;51.992;5.890;2023-01-29T06:42:47;7.10;60.70
55828;DHT22;41758;51.992;5.890;2023-01-29T06:45:13;7.10;61.00
55828;DHT22;41758;51.992;5.890;2023-01-29T06:47:42;7.10;61.30
55828;DHT22;41758;51.992;5.890;2023-01-29T06:50:08;7.20;61.20
55828;DHT22;41758;51.992;5.890;2023-01-29T06:52:36;7.20;60.20
55828;DHT22;41758;51.992;5.890;2023-01-29T06:55:05;7.20;59.90
55828;DHT22;41758;51.992;5.890;2023-01-29T06:57:31;7.20;60.10
55828;DHT22;41758;51.992;5.890;2023-01-29T06:59:56;7.10;60.30
55828;DHT22;41758;51.992;5.890;2023-01-29T07:02:22;7.10;59.40
55828;DHT22;41758;51.992;5.890;2023-01-29T07:04:48;7.10;60.70
55828;DHT22;41758;51.992;5.890;2023-01-29T07:07:14;7.10;60.20
55828;DHT22;41758;51.992;5.890;2023-01-29T07:09:40;7.10;60.70
55828;DHT22;41758;51.992;5.890;2023-01-29T07:12:06;7.10;60.40
55828;DHT22;41758;51.992;5.890;2023-01-29T07:14:35;7.10;61.00
55828;DHT22;41758;51.992;5.890;2023-01-29T07:17:00;7.10;60.20
55828;DHT22;41758;51.992;5.890;2023-01-29T07:19:26;7.10;59.70
55828;DHT22;41758;51.992;5.890;2023-01-29T07:21:52;7.10;59.90
55828;DHT22;41758;51.992;5.890;2023-01-29T07:24:17;7.10;60.80
55828;DHT22;41758;51.992;5.890;2023-01-29T07:26:44;7.10;61.20
55828;DHT22;41758;51.992;5.890;2023-01-29T07:29:10;7.20;61.30
55828;DHT22;41758;51.992;5.890;2023-01-29T07:31:35;7.10;59.90
55828;DHT22;41758;51.992;5.890;2023-01-29T07:34:01;7.10;60.80
55828;DHT22;41758;51.992;5.890;2023-01-29T07:36:27;7.20;61.10
55828;DHT22;41758;51.992;5.890;2023-01-29T07:38:54;7.20;60.60
55828;DHT22;41758;51.992;5.890;2023-01-29T07:41:20;7.20;60.80
55828;DHT22;41758;51.992;5.890;2023-01-29T07:43:46;7.20;61.00
55828;DHT22;41758;51.992;5.890;2023-01-29T07:46:12;7.20;61.30
55828;DHT22;41758;51.992;5.890;2023-01-29T07:48:37;7.20;60.90
55828;DHT22;41758;51.992;5.890;2023-01-29T07:51:03;7.20;61.00
55828;DHT22;41758;51.992;5.890;2023-01-29T07:53:29;7.30;61.20
55828;DHT22;41758;51.992;5.890;2023-01-29T07:55:55;7.30;60.80
55828;DHT22;41758;51.992;5.890;2023-01-29T07:58:21;7.30;60.40
55828;DHT22;41758;51.992;5.890;2023-01-29T08:00:47;7.30;59.90
55828;DHT22;41758;51.992;5.890;2023-01-29T08:03:14;7.30;59.50
55828;DHT22;41758;51.992;5.890;2023-01-29T08:05:44;7.30;59.20
55828;DHT22;41758;51.992;5.890;2023-01-29T08:08:09;7.30;59.20
55828;DHT22;41758;51.992;5.890;2023-01-29T08:10:36;7.30;59.10
55828;DHT22;41758;51.992;5.890;2023-01-29T08:13:03;7.20;59.20
55828;DHT22;41758;51.992;5.890;2023-01-29T08:15:29;7.10;59.80
55828;DHT22;41758;51.992;5.890;2023-01-29T08:17:55;7.20;60.20
55828;DHT22;41758;51.992;5.890;2023-01-29T08:20:21;7.20;60.10
55828;DHT22;41758;51.992;5.890;2023-01-29T08:22:48;7.20;60.80
55828;DHT22;41758;51.992;5.890;2023-01-29T08:25:14;7.20;59.90
55828;DHT22;41758;51.992;5.890;2023-01-29T08:27:40;7.20;60.80
55828;DHT22;41758;51.992;5.890;2023-01-29T08:30:08;7.30;60.60
55828;DHT22;41758;51.992;5.890;2023-01-29T08:32:34;7.30;60.60
55828;DHT22;41758;51.992;5.890;2023-01-29T08:35:00;7.30;60.40
55828;DHT22;41758;51.992;5.890;2023-01-29T08:37:26;7.30;59.90
55828;DHT22;41758;51.992;5.890;2023-01-29T08:39:51;7.30;60.00
55828;DHT22;41758;51.992;5.890;2023-01-29T08:42:17;7.40;60.40
55828;DHT22;41758;51.992;5.890;2023-01-29T08:44:43;7.40;60.30
55828;DHT22;41758;51.992;5.890;2023-01-29T08:47:09;7.40;59.60
55828;DHT22;41758;51.992;5.890;2023-01-29T08:49:34;7.40;59.90
55828;DHT22;41758;51.992;5.890;2023-01-29T08:52:00;7.50;60.30
55828;DHT22;41758;51.992;5.890;2023-01-29T08:54:25;7.50;60.10
55828;DHT22;41758;51.992;5.890;2023-01-29T08:56:51;7.50;60.20
55828;DHT22;41758;51.992;5.890;2023-01-29T08:59:17;7.50;60.20
55828;DHT22;41758;51.992;5.890;2023-01-29T09:01:43;7.60;60.00
55828;DHT22;41758;51.992;5.890;2023-01-29T09:04:12;7.60;59.90
55828;DHT22;41758;51.992;5.890;2023-01-29T09:06:37;7.70;59.20
55828;DHT22;41758;51.992;5.890;2023-01-29T09:09:03;7.70;59.70
55828;DHT22;41758;51.992;5.890;2023-01-29T09:11:29;7.70;59.60
55828;DHT22;41758;51.992;5.890;2023-01-29T09:13:55;7.80;59.80
55828;DHT22;41758;51.992;5.890;2023-01-29T09:16:20;7.80;59.90
55828;DHT22;41758;51.992;5.890;2023-01-29T09:18:48;7.80;59.80
55828;DHT22;41758;51.992;5.890;2023-01-29T09:21:14;7.80;59.50
55828;DHT22;41758;51.992;5.890;2023-01-29T09:23:40;7.80;59.60
55828;DHT22;41758;51.992;5.890;2023-01-29T09:26:07;7.80;59.20
55828;DHT22;41758;51.992;5.890;2023-01-29T09:28:33;7.80;59.40
55828;DHT22;41758;51.992;5.890;2023-01-29T09:31:02;7.90;58.90
55828;DHT22;41758;51.992;5.890;2023-01-29T09:33:28;7.90;59.40
55828;DHT22;41758;51.992;5.890;2023-01-29T09:35:55;7.90;59.00
55828;DHT22;41758;51.992;5.890;2023-01-29T09:38:21;7.90;58.70
55828;DHT22;41758;51.992;5.890;2023-01-29T09:43:52;7.90;58.40
55828;DHT22;41758;51.992;5.890;2023-01-29T09:49:10;7.90;58.40
55828;DHT22;41758;51.992;5.890;2023-01-29T09:51:43;7.90;58.30
55828;DHT22;41758;51.992;5.890;2023-01-29T09:54:15;7.90;58.80
55828;DHT22;41758;51.992;5.890;2023-01-29T09:56:44;7.90;58.30
55828;DHT22;41758;51.992;5.890;2023-01-29T09:59:12;8.00;59.00
55828;DHT22;41758;51.992;5.890;2023-01-29T10:13:06;7.90;58.80
55828;DHT22;41758;51.992;5.890;2023-01-29T10:20:55;8.00;58.40
55828;DHT22;41758;51.992;5.890;2023-01-29T10:23:29;8.00;58.60
55828;DHT22;41758;51.992;5.890;2023-01-29T10:25:57;8.00;58.20
55828;DHT22;41758;51.992;5.890;2023-01-29T10:28:44;8.10;58.40
55828;DHT22;41758;51.992;5.890;2023-01-29T10:31:36;8.10;58.40
55828;DHT22;41758;51.992;5.890;2023-01-29T10:34:13;8.10;58.40
55828;DHT22;41758;51.992;5.890;2023-01-29T10:36:44;8.20;58.20
55828;DHT22;41758;51.992;5.890;2023-01-29T10:39:18;8.20;57.80
55828;DHT22;41758;51.992;5.890;2023-01-29T10:41:48;8.20;57.90
55828;DHT22;41758;51.992;5.890;2023-01-29T10:44:43;8.20;58.00
55828;DHT22;41758;51.992;5.890;2023-01-29T10:55:39;8.10;57.80
55828;DHT22;41758;51.992;5.890;2023-01-29T11:00:48;8.10;58.20
55828;DHT22;41758;51.992;5.890;2023-01-29T11:03:17;8.20;57.90
55828;DHT22;41758;51.992;5.890;2023-01-29T11:11:16;8.30;58.10
55828;DHT22;41758;51.992;5.890;2023-01-29T11:13:57;8.20;58.50
55828;DHT22;41758;51.992;5.890;2023-01-29T11:16:26;8.20;58.00
55828;DHT22;41758;51.992;5.890;2023-01-29T11:18:58;8.30;58.30
55828;DHT22;41758;51.992;5.890;2023-01-29T11:21:26;8.30;58.20
55828;DHT22;41758;51.992;5.890;2023-01-29T11:24:21;8.30;57.30
55828;DHT22;41758;51.992;5.890;2023-01-29T11:26:49;8.30;57.40
55828;DHT22;41758;51.992;5.890;2023-01-29T11:29:43;8.40;58.00
55828;DHT22;41758;51.992;5.890;2023-01-29T11:32:31;8.40;57.70
55828;DHT22;41758;51.992;5.890;2023-01-29T11:37:32;8.40;57.60
55828;DHT22;41758;51.992;5.890;2023-01-29T11:39:58;8.40;57.50
55828;DHT22;41758;51.992;5.890;2023-01-29T11:42:24;8.50;57.70
55828;DHT22;41758;51.992;5.890;2023-01-29T11:44:54;8.60;57.40
55828;DHT22;41758;51.992;5.890;2023-01-29T11:47:27;8.60;57.50
55828;DHT22;41758;51.992;5.890;2023-01-29T11:49:59;8.60;57.40
55828;DHT22;41758;51.992;5.890;2023-01-29T11:52:34;8.60;57.10
55828;DHT22;41758;51.992;5.890;2023-01-29T11:55:06;8.70;56.90
55828;DHT22;41758;51.992;5.890;2023-01-29T11:57:41;8.70;57.00
55828;DHT22;41758;51.992;5.890;2023-01-29T12:05:22;8.70;57.00
55828;DHT22;41758;51.992;5.890;2023-01-29T12:07:50;8.70;57.10
55828;DHT22;41758;51.992;5.890;2023-01-29T12:10:36;8.70;57.40
55828;DHT22;41758;51.992;5.890;2023-01-29T12:15:38;8.70;57.00
55828;DHT22;41758;51.992;5.890;2023-01-29T12:18:11;8.70;57.00
55828;DHT22;41758;51.992;5.890;2023-01-29T12:20:53;8.70;57.30
55828;DHT22;41758;51.992;5.890;2023-01-29T12:26:06;8.60;57.00
55828;DHT22;41758;51.992;5.890;2023-01-29T12:28:52;8.60;57.00
55828;DHT22;41758;51.992;5.890;2023-01-29T12:34:49;8.60;57.40
55828;DHT22;41758;51.992;5.890;2023-01-29T12:40:14;8.50;57.80
55828;DHT22;41758;51.992;5.890;2023-01-29T12:42:50;8.60;58.20
55828;DHT22;41758;51.992;5.890;2023-01-29T12:45:21;8.60;57.90
55828;DHT22;41758;51.992;5.890;2023-01-29T12:47:52;8.70;57.90
55828;DHT22;41758;51.992;5.890;2023-01-29T12:52:52;8.70;57.50
55828;DHT22;41758;51.992;5.890;2023-01-29T12:55:29;8.70;57.40
55828;DHT22;41758;51.992;5.890;2023-01-29T12:58:14;8.80;57.20
55828;DHT22;41758;51.992;5.890;2023-01-29T13:00:45;8.70;57.30
55828;DHT22;41758;51.992;5.890;2023-01-29T13:08:25;8.70;57.80
55828;DHT22;41758;51.992;5.890;2023-01-29T13:10:53;8.70;57.90
55828;DHT22;41758;51.992;5.890;2023-01-29T13:13:30;8.70;57.50
55828;DHT22;41758;51.992;5.890;2023-01-29T13:15:58;8.70;57.80
55828;DHT22;41758;51.992;5.890;2023-01-29T13:18:47;8.70;57.90
55828;DHT22;41758;51.992;5.890;2023-01-29T13:21:24;8.70;57.40
55828;DHT22;41758;51.992;5.890;2023-01-29T13:23:58;8.70;57.00
55828;DHT22;41758;51.992;5.890;2023-01-29T13:26:25;8.70;58.10
55828;DHT22;41758;51.992;5.890;2023-01-29T13:28:51;8.70;58.10
55828;DHT22;41758;51.992;5.890;2023-01-29T13:36:26;8.70;57.80
55828;DHT22;41758;51.992;5.890;2023-01-29T13:39:00;8.70;58.40
55828;DHT22;41758;51.992;5.890;2023-01-29T13:41:38;8.60;58.10
55828;DHT22;41758;51.992;5.890;2023-01-29T13:47:19;8.60;58.30
55828;DHT22;41758;51.992;5.890;2023-01-29T13:50:05;8.70;58.40
55828;DHT22;41758;51.992;5.890;2023-01-29T13:52:44;8.70;58.40
55828;DHT22;41758;51.992;5.890;2023-01-29T13:57:56;8.70;58.70
55828;DHT22;41758;51.992;5.890;2023-01-29T14:01:01;8.70;58.80
55828;DHT22;41758;51.992;5.890;2023-01-29T14:03:55;8.70;58.70
55828;DHT22;41758;51.992;5.890;2023-01-29T14:06:39;8.70;58.90
55828;DHT22;41758;51.992;5.890;2023-01-29T14:15:26;8.80;58.90
55828;DHT22;41758;51.992;5.890;2023-01-29T14:18:21;8.80;59.00
55828;DHT22;41758;51.992;5.890;2023-01-29T14:21:27;8.80;58.70
55828;DHT22;41758;51.992;5.890;2023-01-29T14:24:15;8.80;59.00
55828;DHT22;41758;51.992;5.890;2023-01-29T14:26:54;8.70;58.80
55828;DHT22;41758;51.992;5.890;2023-01-29T14:29:26;8.80;58.60
55828;DHT22;41758;51.992;5.890;2023-01-29T14:31:57;8.80;58.90
55828;DHT22;41758;51.992;5.890;2023-01-29T14:34:33;8.80;58.70
55828;DHT22;41758;51.992;5.890;2023-01-29T14:37:21;8.80;58.70
55828;DHT22;41758;51.992;5.890;2023-01-29T14:40:07;8.80;58.40
55828;DHT22;41758;51.992;5.890;2023-01-29T14:42:44;8.70;58.70
55828;DHT22;41758;51.992;5.890;2023-01-29T14:45:33;8.80;58.70
55828;DHT22;41758;51.992;5.890;2023-01-29T14:48:01;8.80;58.70
55828;DHT22;41758;51.992;5.890;2023-01-29T14:53:04;8.80;58.80
55828;DHT22;41758;51.992;5.890;2023-01-29T14:55:53;8.80;58.70
55828;DHT22;41758;51.992;5.890;2023-01-29T14:58:51;8.80;58.80
55828;DHT22;41758;51.992;5.890;2023-01-29T15:01:21;8.80;58.50
55828;DHT22;41758;51.992;5.890;2023-01-29T15:14:51;8.80;58.90
55828;DHT22;41758;51.992;5.890;2023-01-29T15:17:27;8.80;58.80
55828;DHT22;41758;51.992;5.890;2023-01-29T15:19:54;8.80;58.80
55828;DHT22;41758;51.992;5.890;2023-01-29T15:22:27;8.80;58.60
55828;DHT22;41758;51.992;5.890;2023-01-29T15:28:41;8.80;58.50
55828;DHT22;41758;51.992;5.890;2023-01-29T15:45:43;8.70;59.20
55828;DHT22;41758;51.992;5.890;2023-01-29T15:55:39;8.60;59.10
55828;DHT22;41758;51.992;5.890;2023-01-29T15:58:06;8.60;59.20
55828;DHT22;41758;51.992;5.890;2023-01-29T16:00:36;8.60;59.30
55828;DHT22;41758;51.992;5.890;2023-01-29T16:03:22;8.60;59.00
55828;DHT22;41758;51.992;5.890;2023-01-29T16:05:55;8.60;59.30
55828;DHT22;41758;51.992;5.890;2023-01-29T16:08:23;8.60;58.60
55828;DHT22;41758;51.992;5.890;2023-01-29T16:11:03;8.70;58.90
55828;DHT22;41758;51.992;5.890;2023-01-29T16:13:41;8.70;59.40
55828;DHT22;41758;51.992;5.890;2023-01-29T16:16:22;8.60;59.40
55828;DHT22;41758;51.992;5.890;2023-01-29T16:19:01;8.60;59.50
55828;DHT22;41758;51.992;5.890;2023-01-29T16:21:41;8.60;59.50
55828;DHT22;41758;51.992;5.890;2023-01-29T16:24:35;8.60;59.50
55828;DHT22;41758;51.992;5.890;2023-01-29T16:27:12;8.60;59.60
55828;DHT22;41758;51.992;5.890;2023-01-29T16:29:39;8.60;59.60
55828;DHT22;41758;51.992;5.890;2023-01-29T16:32:05;8.60;59.70
55828;DHT22;41758;51.992;5.890;2023-01-29T16:34:35;8.60;59.40
55828;DHT22;41758;51.992;5.890;2023-01-29T16:37:27;8.60;59.60
55828;DHT22;41758;51.992;5.890;2023-01-29T16:39:59;8.60;59.20
55828;DHT22;41758;51.992;5.890;2023-01-29T16:42:28;8.60;59.60
55828;DHT22;41758;51.992;5.890;2023-01-29T16:52:33;8.60;59.70
55828;DHT22;41758;51.992;5.890;2023-01-29T16:57:31;8.60;59.70
55828;DHT22;41758;51.992;5.890;2023-01-29T17:00:00;8.60;60.00
55828;DHT22;41758;51.992;5.890;2023-01-29T17:02:30;8.60;59.90
55828;DHT22;41758;51.992;5.890;2023-01-29T17:05:08;8.60;60.20
55828;DHT22;41758;51.992;5.890;2023-01-29T17:07:35;8.60;60.00
55828;DHT22;41758;51.992;5.890;2023-01-29T17:10:04;8.60;60.40
55828;DHT22;41758;51.992;5.890;2023-01-29T17:12:31;8.60;60.50
55828;DHT22;41758;51.992;5.890;2023-01-29T17:15:04;8.60;60.40
55828;DHT22;41758;51.992;5.890;2023-01-29T17:17:34;8.50;60.70
55828;DHT22;41758;51.992;5.890;2023-01-29T17:20:13;8.50;60.80
55828;DHT22;41758;51.992;5.890;2023-01-29T17:22:39;8.40;61.30
55828;DHT22;41758;51.992;5.890;2023-01-29T17:25:05;8.40;61.40
55828;DHT22;41758;51.992;5.890;2023-01-29T17:27:49;8.40;61.50
55828;DHT22;41758;51.992;5.890;2023-01-29T17:30:22;8.40;61.40
55828;DHT22;41758;51.992;5.890;2023-01-29T17:32:52;8.40;61.30
55828;DHT22;41758;51.992;5.890;2023-01-29T17:35:18;8.50;61.40
55828;DHT22;41758;51.992;5.890;2023-01-29T17:37:50;8.40;61.20
55828;DHT22;41758;51.992;5.890;2023-01-29T17:40:59;8.50;61.40
55828;DHT22;41758;51.992;5.890;2023-01-29T17:43:26;8.50;61.60
55828;DHT22;41758;51.992;5.890;2023-01-29T17:45:56;8.40;61.90
55828;DHT22;41758;51.992;5.890;2023-01-29T17:48:23;8.40;62.40
55828;DHT22;41758;51.992;5.890;2023-01-29T17:50:52;8.40;62.30
55828;DHT22;41758;51.992;5.890;2023-01-29T17:53:19;8.40;62.30
55828;DHT22;41758;51.992;5.890;2023-01-29T17:55:47;8.40;62.50
55828;DHT22;41758;51.992;5.890;2023-01-29T17:58:18;8.40;62.50
55828;DHT22;41758;51.992;5.890;2023-01-29T18:00:44;8.40;62.40
55828;DHT22;41758;51.992;5.890;2023-01-29T18:03:10;8.40;62.00
55828;DHT22;41758;51.992;5.890;2023-01-29T18:05:36;8.50;61.60
55828;DHT22;41758;51.992;5.890;2023-01-29T18:08:02;8.40;61.70
55828;DHT22;41758;51.992;5.890;2023-01-29T18:10:28;8.40;61.60
55828;DHT22;41758;51.992;5.890;2023-01-29T18:12:54;8.50;61.60
55828;DHT22;41758;51.992;5.890;2023-01-29T18:15:20;8.50;61.40
55828;DHT22;41758;51.992;5.890;2023-01-29T18:17:49;8.50;61.60
55828;DHT22;41758;51.992;5.890;2023-01-29T18:20:24;8.50;61.40
55828;DHT22;41758;51.992;5.890;2023-01-29T18:22:50;8.50;61.50
55828;DHT22;41758;51.992;5.890;2023-01-29T18:25:16;8.50;61.40
55828;DHT22;41758;51.992;5.890;2023-01-29T18:27:42;8.50;60.70
55828;DHT22;41758;51.992;5.890;2023-01-29T18:30:10;8.50;60.70
55828;DHT22;41758;51.992;5.890;2023-01-29T18:32:40;8.50;60.70
55828;DHT22;41758;51.992;5.890;2023-01-29T18:35:06;8.50;60.80
55828;DHT22;41758;51.992;5.890;2023-01-29T18:37:32;8.50;60.90
55828;DHT22;41758;51.992;5.890;2023-01-29T18:39:59;8.50;60.90
55828;DHT22;41758;51.992;5.890;2023-01-29T18:42:35;8.50;60.80
55828;DHT22;41758;51.992;5.890;2023-01-29T18:45:01;8.50;60.70
55828;DHT22;41758;51.992;5.890;2023-01-29T18:47:28;8.50;60.80
55828;DHT22;41758;51.992;5.890;2023-01-29T18:49:54;8.50;60.80
55828;DHT22;41758;51.992;5.890;2023-01-29T18:52:20;8.50;60.70
55828;DHT22;41758;51.992;5.890;2023-01-29T18:54:46;8.50;60.80
55828;DHT22;41758;51.992;5.890;2023-01-29T18:57:12;8.50;60.50
55828;DHT22;41758;51.992;5.890;2023-01-29T18:59:37;8.50;60.80
55828;DHT22;41758;51.992;5.890;2023-01-29T19:02:03;8.50;60.60
55828;DHT22;41758;51.992;5.890;2023-01-29T19:04:29;8.60;60.60
55828;DHT22;41758;51.992;5.890;2023-01-29T19:06:55;8.60;60.70